My Meet Scores
Lilah Russo, Phenom Gymnastics - MyMeetScores.com
Top100 | Top Teams | Upcoming Meets | Completed Meets | Latest | Add Scores | Help| Support | Bookmark and Share

Lilah Russo, Phenom Gymnastics
Personal Bests
LevelVault BarsBeamFloorAA
39.4509.350 8.9509.50037.075
48.7259.550 9.4259.15036.675
59.2759.400 9.4259.30037.100
79.6009.850 9.5759.55038.450
89.6009.775 9.3509.50037.575
Scores on America's Top 100as of 11.14.2019
Year Level Vault Bars Beam Floor AA
2017 79.850

Click here to view our
exclusive Top 100 Collection
Meet Scores
Date Meet Team Session Level Division Vault Bars Beam Floor AA
2019-03-29 Illinois Level 7 & 8 State Meet Phenom Gymnastics 1 8 Jr C 9.450 3 9.775 1T 8.875 16 9.475 6T 37.575 3
2019-03-01 NGCD Academy's 2019 Flip'r Invitational Phenom Gymnastics 4 8 Jr A 9.600 1 9.600 1 8.975 5T 9.200 4 37.375 1
2019-02-23 Kinetic Classic 2019 Phenom Gymnastics 1 8 Younger 9.100 6 9.575 1 9.300 3 8.850 13 36.825 2
2019-02-01 The Big Chill Phenom Gymnastics 2 8 12 yr olds 0.000 1 9.500 1 9.300 2 9.500 1 37.300 1
2019-01-18 2019 Bravo Classic Phenom Gymnastics 5A 8 Child 9.500 1 9.500 1 8.875 13 9.300 6 37.175 2
2018-12-14 2018 Aspire Classic Phenom Gymnastics 4 8 Younger 9.125 5 9.375 3T 9.350 3T 9.350 3T 37.200 1
2018-12-07 2018 MEGA Magic Classic Phenom Gymnastics A4 8 Jr A 9.075 1 9.325 3 8.400 16 9.025 9 35.825 5
2018-03-23 Illinois Level 7 & 8 State Competition Phenom Gymnastics 10 7 Ch C 9.600 3T 9.775 4 9.525 9 9.550 8 38.450 3
2018-03-02 2018 Flip'r Invitational Phenom Gymnastics 2 7 Jr A Age 11 9.075 4 9.475 5 9.575 3 9.350 6 37.475 5
2018-02-01 The Big Chill Phenom Gymnastics 5 7 10 11 yr 9.575 1T 9.250 1 9.500 4T 9.400 6T 37.725 1
2018-01-19 2018 Bravo Classic Phenom Gymnastics 4A 7 Child 9.300 12 9.600 1 9.050 14T 9.200 16 37.150 6
2018-01-12 St Jude Benefit Meet Phenom Gymnastics 8B 7 JrA 9.600 3 9.500 1 9.475 4 9.400 3T 37.975 2
2017-12-15 2017 Aspire Classic Phenom Gymnastics 2 7 Jr A 9.575 6 9.850 1 9.525 2 9.375 9 38.325 1
2017-12-08 MEGA Magic Classic 2017 Phenom Gymnastics 2B 7 Jr A 9.000 7T 9.500 4 9.525 3 9.375 3 37.400 3
2017-03-30 2017 Illinois Level 3 & 5 State American Institute of Gymnastics All 5 Jr C 8.900 23 9.400 7 8.000 25 9.300 9T 35.600 18
2017-01-27 2017 UGA Invitational American Institute of Gymnastics B3 5 Child 9.275 5T 9.150 2T 9.425 2 9.250 1 37.100 1
2017-01-05 Leenda's Island Adventure American Institute of Gymnastics P05 5 10 and Und 9.250 2T 9.125 2 9.300 3 9.000 3T 36.675 2
2016-12-09 St. Nick Invite American Institute of Gymnastics 1 5 JrA 8.650 10T 9.325 1 9.300 1 8.950 5T 36.225 1
2016-03-10 2016 Illinois Level 4 State Meet American Institute of Gymnastics All 4 Youth-A 8.725 16 8.925 12 8.900 22 9.150 12 35.700 14
2016-01-08 St Jude Benefit Meet American Institute of Gymnastics 5A 4 Jr A 8.700 4T 9.550 1 9.425 3 9.000 5 36.675 2
2015-12-11 St. Nick Invite American Institute of Gymnastics 7B 4 Child 8.300 8T 9.550 2 9.150 4 8.800 3 35.800 1
2015-03-12 2015 Illinois Level 3 State Championship American Institute of Gymnastics All 3 Youth-C 9.300 15 9.325 7 8.950 16 9.500 4 37.075 7
2015-02-27 Elk Grove Gymnastics Invite American Institute of Gymnastics 1 3 6-8yrs 9.450 1 9.350 4T 8.900 6T 9.275 3 36.975 2
2015-02-13 IGI Chicago Style Gymnastics Meet American Institute of Gymnastics 221 3 8 & younge 9.200 7T 9.250 3 8.025 13 9.150 3 35.625 8
Get your scores on
a t-shirt, pin, or hoodie

www.lazysuits.com